sensor_id;sensor_type;location;lat;lon;timestamp;P1;durP1;ratioP1;P2;durP2;ratioP2
86575;SDS011;77216;53.732;9.462;2024-03-23T00:51:55;669.72;;;617.10;;
86575;SDS011;77216;53.732;9.462;2024-03-23T00:54:21;675.85;;;623.38;;
86575;SDS011;77216;53.732;9.462;2024-03-23T00:56:47;665.55;;;614.22;;
86575;SDS011;77216;53.732;9.462;2024-03-23T00:59:13;661.20;;;611.63;;
86575;SDS011;77216;53.732;9.462;2024-03-23T01:01:40;666.72;;;615.60;;
86575;SDS011;77216;53.732;9.462;2024-03-23T01:04:06;668.17;;;617.05;;
86575;SDS011;77216;53.732;9.462;2024-03-23T01:06:32;669.47;;;617.55;;
86575;SDS011;77216;53.732;9.462;2024-03-23T01:09:00;675.75;;;622.85;;
86575;SDS011;77216;53.732;9.462;2024-03-23T01:11:26;675.78;;;623.05;;
86575;SDS011;77216;53.732;9.462;2024-03-23T01:13:53;676.20;;;623.40;;
86575;SDS011;77216;53.732;9.462;2024-03-23T01:16:21;666.92;;;616.42;;
86575;SDS011;77216;53.732;9.462;2024-03-23T01:18:47;668.45;;;616.13;;
86575;SDS011;77216;53.732;9.462;2024-03-23T01:21:13;670.55;;;620.28;;
86575;SDS011;77216;53.732;9.462;2024-03-23T01:23:40;672.05;;;619.13;;
86575;SDS011;77216;53.732;9.462;2024-03-23T01:26:07;672.63;;;618.95;;
86575;SDS011;77216;53.732;9.462;2024-03-23T01:28:32;670.55;;;619.45;;
86575;SDS011;77216;53.732;9.462;2024-03-23T01:30:58;662.33;;;612.50;;
86575;SDS011;77216;53.732;9.462;2024-03-23T01:33:25;660.53;;;610.47;;
86575;SDS011;77216;53.732;9.462;2024-03-23T01:35:52;667.65;;;615.60;;
86575;SDS011;77216;53.732;9.462;2024-03-23T01:38:17;663.45;;;613.80;;
86575;SDS011;77216;53.732;9.462;2024-03-23T01:40:43;665.03;;;614.92;;
86575;SDS011;77216;53.732;9.462;2024-03-23T01:43:08;665.13;;;614.42;;
86575;SDS011;77216;53.732;9.462;2024-03-23T01:45:35;664.20;;;612.72;;
86575;SDS011;77216;53.732;9.462;2024-03-23T01:48:01;658.75;;;607.83;;
86575;SDS011;77216;53.732;9.462;2024-03-23T01:50:28;661.20;;;611.17;;
86575;SDS011;77216;53.732;9.462;2024-03-23T01:52:58;675.97;;;619.47;;
86575;SDS011;77216;53.732;9.462;2024-03-23T01:55:25;659.90;;;610.25;;
86575;SDS011;77216;53.732;9.462;2024-03-23T01:57:52;671.40;;;618.33;;
86575;SDS011;77216;53.732;9.462;2024-03-23T02:00:19;655.83;;;607.63;;
86575;SDS011;77216;53.732;9.462;2024-03-23T02:02:45;664.25;;;613.15;;
86575;SDS011;77216;53.732;9.462;2024-03-23T02:05:20;658.80;;;609.35;;
86575;SDS011;77216;53.732;9.462;2024-03-23T02:07:46;656.30;;;603.80;;
86575;SDS011;77216;53.732;9.462;2024-03-23T02:10:13;653.38;;;604.95;;
86575;SDS011;77216;53.732;9.462;2024-03-23T02:12:40;650.63;;;600.38;;
86575;SDS011;77216;53.732;9.462;2024-03-23T02:15:06;655.67;;;606.67;;
86575;SDS011;77216;53.732;9.462;2024-03-23T02:17:33;657.83;;;609.13;;
86575;SDS011;77216;53.732;9.462;2024-03-23T02:20:01;651.30;;;602.55;;
86575;SDS011;77216;53.732;9.462;2024-03-23T02:22:39;662.03;;;610.85;;
86575;SDS011;77216;53.732;9.462;2024-03-23T02:25:05;656.13;;;604.17;;
86575;SDS011;77216;53.732;9.462;2024-03-23T02:27:31;651.40;;;601.17;;
86575;SDS011;77216;53.732;9.462;2024-03-23T02:29:58;650.55;;;599.88;;
86575;SDS011;77216;53.732;9.462;2024-03-23T02:32:24;655.53;;;605.33;;
86575;SDS011;77216;53.732;9.462;2024-03-23T02:34:52;650.63;;;600.00;;
86575;SDS011;77216;53.732;9.462;2024-03-23T02:37:18;646.80;;;599.55;;
86575;SDS011;77216;53.732;9.462;2024-03-23T02:39:43;656.92;;;606.45;;
86575;SDS011;77216;53.732;9.462;2024-03-23T02:42:09;646.88;;;599.25;;
86575;SDS011;77216;53.732;9.462;2024-03-23T02:44:35;649.95;;;601.00;;
86575;SDS011;77216;53.732;9.462;2024-03-23T02:47:01;641.20;;;592.45;;
86575;SDS011;77216;53.732;9.462;2024-03-23T02:49:26;644.25;;;596.42;;
86575;SDS011;77216;53.732;9.462;2024-03-23T02:51:52;652.90;;;601.40;;
86575;SDS011;77216;53.732;9.462;2024-03-23T02:54:19;650.47;;;600.72;;
86575;SDS011;77216;53.732;9.462;2024-03-23T02:56:47;641.58;;;593.45;;
86575;SDS011;77216;53.732;9.462;2024-03-23T02:59:12;645.38;;;595.95;;
86575;SDS011;77216;53.732;9.462;2024-03-23T03:01:38;638.35;;;592.40;;
86575;SDS011;77216;53.732;9.462;2024-03-23T03:04:04;642.47;;;594.97;;
86575;SDS011;77216;53.732;9.462;2024-03-23T03:06:30;644.97;;;597.13;;
86575;SDS011;77216;53.732;9.462;2024-03-23T03:08:55;653.13;;;602.20;;
86575;SDS011;77216;53.732;9.462;2024-03-23T03:11:21;642.55;;;595.42;;
86575;SDS011;77216;53.732;9.462;2024-03-23T03:13:47;650.45;;;600.85;;
86575;SDS011;77216;53.732;9.462;2024-03-23T03:16:12;640.72;;;593.10;;
86575;SDS011;77216;53.732;9.462;2024-03-23T03:18:38;639.78;;;593.30;;
86575;SDS011;77216;53.732;9.462;2024-03-23T03:21:04;649.35;;;601.17;;
86575;SDS011;77216;53.732;9.462;2024-03-23T03:23:34;647.58;;;601.22;;
86575;SDS011;77216;53.732;9.462;2024-03-23T03:26:00;649.83;;;599.92;;
86575;SDS011;77216;53.732;9.462;2024-03-23T03:28:26;643.95;;;595.83;;
86575;SDS011;77216;53.732;9.462;2024-03-23T03:30:55;645.13;;;595.97;;
86575;SDS011;77216;53.732;9.462;2024-03-23T03:33:21;638.72;;;591.60;;
86575;SDS011;77216;53.732;9.462;2024-03-23T03:35:47;642.05;;;595.28;;
86575;SDS011;77216;53.732;9.462;2024-03-23T03:38:12;636.38;;;589.30;;
86575;SDS011;77216;53.732;9.462;2024-03-23T03:40:38;628.38;;;583.78;;
86575;SDS011;77216;53.732;9.462;2024-03-23T03:43:10;633.22;;;587.90;;
86575;SDS011;77216;53.732;9.462;2024-03-23T03:45:38;636.40;;;590.47;;
86575;SDS011;77216;53.732;9.462;2024-03-23T03:48:05;644.28;;;594.35;;
86575;SDS011;77216;53.732;9.462;2024-03-23T03:50:32;639.08;;;591.70;;
86575;SDS011;77216;53.732;9.462;2024-03-23T03:52:58;640.88;;;592.72;;
86575;SDS011;77216;53.732;9.462;2024-03-23T03:55:23;646.60;;;598.40;;
86575;SDS011;77216;53.732;9.462;2024-03-23T03:57:49;643.92;;;594.17;;
86575;SDS011;77216;53.732;9.462;2024-03-23T04:00:15;638.83;;;591.95;;
86575;SDS011;77216;53.732;9.462;2024-03-23T04:02:41;642.90;;;595.33;;
86575;SDS011;77216;53.732;9.462;2024-03-23T04:05:06;638.25;;;591.75;;
86575;SDS011;77216;53.732;9.462;2024-03-23T04:07:33;645.38;;;597.63;;
86575;SDS011;77216;53.732;9.462;2024-03-23T04:09:59;639.38;;;590.83;;
86575;SDS011;77216;53.732;9.462;2024-03-23T04:12:24;641.15;;;593.00;;
86575;SDS011;77216;53.732;9.462;2024-03-23T04:14:52;644.38;;;596.13;;
86575;SDS011;77216;53.732;9.462;2024-03-23T04:17:20;640.47;;;593.60;;
86575;SDS011;77216;53.732;9.462;2024-03-23T04:19:46;635.88;;;589.78;;
86575;SDS011;77216;53.732;9.462;2024-03-23T04:22:14;633.08;;;586.88;;
86575;SDS011;77216;53.732;9.462;2024-03-23T04:24:39;646.72;;;600.70;;
86575;SDS011;77216;53.732;9.462;2024-03-23T04:27:05;643.92;;;593.88;;
86575;SDS011;77216;53.732;9.462;2024-03-23T04:29:34;641.25;;;593.00;;
86575;SDS011;77216;53.732;9.462;2024-03-23T04:31:59;659.80;;;606.30;;
86575;SDS011;77216;53.732;9.462;2024-03-23T04:34:26;644.80;;;597.30;;
86575;SDS011;77216;53.732;9.462;2024-03-23T04:36:52;647.05;;;598.38;;
86575;SDS011;77216;53.732;9.462;2024-03-23T04:39:18;635.75;;;588.10;;
86575;SDS011;77216;53.732;9.462;2024-03-23T04:41:45;646.50;;;598.83;;
86575;SDS011;77216;53.732;9.462;2024-03-23T04:44:10;645.35;;;598.15;;
86575;SDS011;77216;53.732;9.462;2024-03-23T04:46:36;634.67;;;588.58;;
86575;SDS011;77216;53.732;9.462;2024-03-23T04:49:01;642.08;;;593.05;;
86575;SDS011;77216;53.732;9.462;2024-03-23T04:51:34;639.42;;;591.30;;
86575;SDS011;77216;53.732;9.462;2024-03-23T04:54:02;651.88;;;602.67;;
86575;SDS011;77216;53.732;9.462;2024-03-23T04:56:27;633.17;;;587.63;;
86575;SDS011;77216;53.732;9.462;2024-03-23T04:58:53;639.13;;;590.60;;
86575;SDS011;77216;53.732;9.462;2024-03-23T05:01:19;633.45;;;587.45;;
86575;SDS011;77216;53.732;9.462;2024-03-23T05:03:44;632.45;;;588.30;;
86575;SDS011;77216;53.732;9.462;2024-03-23T05:06:13;625.75;;;580.60;;
86575;SDS011;77216;53.732;9.462;2024-03-23T05:08:38;629.20;;;583.75;;
86575;SDS011;77216;53.732;9.462;2024-03-23T05:11:04;642.72;;;594.17;;
86575;SDS011;77216;53.732;9.462;2024-03-23T05:13:31;637.05;;;589.88;;
86575;SDS011;77216;53.732;9.462;2024-03-23T05:15:57;633.13;;;585.60;;
86575;SDS011;77216;53.732;9.462;2024-03-23T05:18:24;632.75;;;586.17;;
86575;SDS011;77216;53.732;9.462;2024-03-23T05:20:56;629.17;;;583.92;;
86575;SDS011;77216;53.732;9.462;2024-03-23T05:23:22;632.25;;;587.13;;
86575;SDS011;77216;53.732;9.462;2024-03-23T05:25:51;630.03;;;584.85;;
86575;SDS011;77216;53.732;9.462;2024-03-23T05:28:17;617.15;;;573.72;;
86575;SDS011;77216;53.732;9.462;2024-03-23T05:30:49;630.58;;;585.50;;
86575;SDS011;77216;53.732;9.462;2024-03-23T05:33:21;629.15;;;583.97;;
86575;SDS011;77216;53.732;9.462;2024-03-23T05:35:47;626.28;;;581.13;;
86575;SDS011;77216;53.732;9.462;2024-03-23T05:38:20;635.65;;;589.97;;
86575;SDS011;77216;53.732;9.462;2024-03-23T05:40:53;635.72;;;589.03;;
86575;SDS011;77216;53.732;9.462;2024-03-23T05:43:20;629.55;;;583.97;;
86575;SDS011;77216;53.732;9.462;2024-03-23T05:45:54;634.53;;;587.53;;
86575;SDS011;77216;53.732;9.462;2024-03-23T05:48:20;626.63;;;581.67;;
86575;SDS011;77216;53.732;9.462;2024-03-23T05:50:45;630.10;;;584.50;;
86575;SDS011;77216;53.732;9.462;2024-03-23T05:53:17;632.35;;;587.55;;
86575;SDS011;77216;53.732;9.462;2024-03-23T05:55:45;632.47;;;587.53;;
86575;SDS011;77216;53.732;9.462;2024-03-23T05:58:12;625.03;;;580.13;;
86575;SDS011;77216;53.732;9.462;2024-03-23T06:00:40;631.35;;;586.20;;
86575;SDS011;77216;53.732;9.462;2024-03-23T06:03:05;640.35;;;591.50;;
86575;SDS011;77216;53.732;9.462;2024-03-23T06:05:32;633.03;;;587.35;;
86575;SDS011;77216;53.732;9.462;2024-03-23T06:07:57;641.80;;;591.97;;
86575;SDS011;77216;53.732;9.462;2024-03-23T06:10:23;625.38;;;580.25;;
86575;SDS011;77216;53.732;9.462;2024-03-23T06:12:50;636.95;;;587.15;;
86575;SDS011;77216;53.732;9.462;2024-03-23T06:15:17;634.05;;;586.92;;
86575;SDS011;77216;53.732;9.462;2024-03-23T06:17:46;632.42;;;586.33;;
86575;SDS011;77216;53.732;9.462;2024-03-23T06:20:12;639.50;;;591.15;;
86575;SDS011;77216;53.732;9.462;2024-03-23T06:22:38;627.60;;;582.55;;
86575;SDS011;77216;53.732;9.462;2024-03-23T06:25:04;644.17;;;596.33;;
86575;SDS011;77216;53.732;9.462;2024-03-23T06:27:30;637.00;;;589.20;;
86575;SDS011;77216;53.732;9.462;2024-03-23T06:29:57;642.97;;;596.03;;
86575;SDS011;77216;53.732;9.462;2024-03-23T06:32:23;640.90;;;592.63;;
86575;SDS011;77216;53.732;9.462;2024-03-23T06:34:49;629.28;;;584.88;;
86575;SDS011;77216;53.732;9.462;2024-03-23T06:37:14;630.88;;;583.92;;
86575;SDS011;77216;53.732;9.462;2024-03-23T06:39:41;651.03;;;596.88;;
86575;SDS011;77216;53.732;9.462;2024-03-23T06:42:07;643.35;;;594.33;;
86575;SDS011;77216;53.732;9.462;2024-03-23T06:44:33;636.17;;;589.15;;
86575;SDS011;77216;53.732;9.462;2024-03-23T06:46:58;639.47;;;592.45;;
86575;SDS011;77216;53.732;9.462;2024-03-23T06:49:24;625.50;;;581.33;;
86575;SDS011;77216;53.732;9.462;2024-03-23T06:51:50;640.17;;;591.70;;
86575;SDS011;77216;53.732;9.462;2024-03-23T06:54:16;637.88;;;590.58;;
86575;SDS011;77216;53.732;9.462;2024-03-23T06:56:45;641.47;;;594.50;;
86575;SDS011;77216;53.732;9.462;2024-03-23T06:59:11;640.47;;;593.00;;
86575;SDS011;77216;53.732;9.462;2024-03-23T07:01:37;629.17;;;583.40;;
86575;SDS011;77216;53.732;9.462;2024-03-23T07:04:03;637.58;;;590.53;;
86575;SDS011;77216;53.732;9.462;2024-03-23T07:06:29;636.08;;;588.80;;
86575;SDS011;77216;53.732;9.462;2024-03-23T07:08:55;642.40;;;594.03;;
86575;SDS011;77216;53.732;9.462;2024-03-23T07:11:21;632.80;;;587.53;;
86575;SDS011;77216;53.732;9.462;2024-03-23T07:13:50;627.58;;;584.20;;
86575;SDS011;77216;53.732;9.462;2024-03-23T07:16:19;638.42;;;593.13;;
86575;SDS011;77216;53.732;9.462;2024-03-23T07:18:45;633.20;;;586.78;;
86575;SDS011;77216;53.732;9.462;2024-03-23T07:21:11;635.33;;;589.47;;
86575;SDS011;77216;53.732;9.462;2024-03-23T07:23:37;639.10;;;591.03;;
86575;SDS011;77216;53.732;9.462;2024-03-23T07:26:03;642.15;;;595.22;;
86575;SDS011;77216;53.732;9.462;2024-03-23T07:28:33;631.90;;;584.92;;
86575;SDS011;77216;53.732;9.462;2024-03-23T07:31:12;643.13;;;594.97;;
86575;SDS011;77216;53.732;9.462;2024-03-23T07:33:43;642.83;;;596.10;;
86575;SDS011;77216;53.732;9.462;2024-03-23T07:36:15;648.22;;;600.28;;
86575;SDS011;77216;53.732;9.462;2024-03-23T07:38:47;641.88;;;594.90;;
86575;SDS011;77216;53.732;9.462;2024-03-23T07:41:20;650.25;;;602.55;;
86575;SDS011;77216;53.732;9.462;2024-03-23T07:43:46;642.47;;;594.90;;
86575;SDS011;77216;53.732;9.462;2024-03-23T07:46:16;649.05;;;599.90;;
86575;SDS011;77216;53.732;9.462;2024-03-23T07:48:41;641.80;;;594.00;;
86575;SDS011;77216;53.732;9.462;2024-03-23T07:51:17;653.80;;;605.17;;
86575;SDS011;77216;53.732;9.462;2024-03-23T07:53:45;636.55;;;590.00;;
86575;SDS011;77216;53.732;9.462;2024-03-23T07:56:12;644.42;;;596.15;;
86575;SDS011;77216;53.732;9.462;2024-03-23T07:58:40;633.03;;;587.90;;
86575;SDS011;77216;53.732;9.462;2024-03-23T08:01:07;657.63;;;607.97;;
86575;SDS011;77216;53.732;9.462;2024-03-23T08:03:38;635.92;;;590.58;;
86575;SDS011;77216;53.732;9.462;2024-03-23T08:06:15;635.33;;;588.83;;
86575;SDS011;77216;53.732;9.462;2024-03-23T08:08:49;643.08;;;595.70;;
86575;SDS011;77216;53.732;9.462;2024-03-23T08:11:18;634.15;;;587.47;;
86575;SDS011;77216;53.732;9.462;2024-03-23T08:13:44;638.13;;;591.72;;
86575;SDS011;77216;53.732;9.462;2024-03-23T08:16:10;654.92;;;606.42;;
86575;SDS011;77216;53.732;9.462;2024-03-23T08:18:37;643.50;;;595.72;;
86575;SDS011;77216;53.732;9.462;2024-03-23T08:21:03;646.55;;;597.85;;
86575;SDS011;77216;53.732;9.462;2024-03-23T08:23:31;646.25;;;597.53;;
86575;SDS011;77216;53.732;9.462;2024-03-23T08:26:02;645.95;;;597.40;;
86575;SDS011;77216;53.732;9.462;2024-03-23T08:28:40;634.47;;;587.55;;
86575;SDS011;77216;53.732;9.462;2024-03-23T08:31:07;642.13;;;595.03;;
86575;SDS011;77216;53.732;9.462;2024-03-23T08:33:34;637.38;;;591.08;;
86575;SDS011;77216;53.732;9.462;2024-03-23T08:38:30;635.38;;;588.35;;
86575;SDS011;77216;53.732;9.462;2024-03-23T08:40:58;644.95;;;597.00;;
86575;SDS011;77216;53.732;9.462;2024-03-23T08:43:25;651.17;;;602.67;;
86575;SDS011;77216;53.732;9.462;2024-03-23T08:45:51;637.90;;;591.47;;
86575;SDS011;77216;53.732;9.462;2024-03-23T08:48:18;650.22;;;602.83;;
86575;SDS011;77216;53.732;9.462;2024-03-23T08:50:45;647.97;;;600.35;;
86575;SDS011;77216;53.732;9.462;2024-03-23T08:53:12;647.88;;;600.00;;
86575;SDS011;77216;53.732;9.462;2024-03-23T08:55:38;652.13;;;603.72;;
86575;SDS011;77216;53.732;9.462;2024-03-23T08:58:04;649.22;;;599.88;;
86575;SDS011;77216;53.732;9.462;2024-03-23T09:00:30;649.85;;;600.95;;
86575;SDS011;77216;53.732;9.462;2024-03-23T09:02:57;649.85;;;600.08;;
86575;SDS011;77216;53.732;9.462;2024-03-23T09:05:23;648.35;;;599.05;;
86575;SDS011;77216;53.732;9.462;2024-03-23T09:07:49;651.17;;;600.85;;
86575;SDS011;77216;53.732;9.462;2024-03-23T09:10:14;652.72;;;602.83;;
86575;SDS011;77216;53.732;9.462;2024-03-23T09:12:41;649.97;;;599.13;;
86575;SDS011;77216;53.732;9.462;2024-03-23T09:15:09;653.90;;;603.88;;
86575;SDS011;77216;53.732;9.462;2024-03-23T09:17:34;640.92;;;593.45;;
86575;SDS011;77216;53.732;9.462;2024-03-23T09:20:00;643.03;;;594.60;;
86575;SDS011;77216;53.732;9.462;2024-03-23T09:22:25;651.25;;;602.08;;
86575;SDS011;77216;53.732;9.462;2024-03-23T09:24:51;636.92;;;591.75;;
86575;SDS011;77216;53.732;9.462;2024-03-23T09:27:17;644.67;;;598.13;;
86575;SDS011;77216;53.732;9.462;2024-03-23T09:29:42;650.85;;;601.70;;
86575;SDS011;77216;53.732;9.462;2024-03-23T09:32:08;647.55;;;599.72;;
86575;SDS011;77216;53.732;9.462;2024-03-23T09:34:34;643.22;;;596.75;;
86575;SDS011;77216;53.732;9.462;2024-03-23T09:36:59;642.38;;;594.17;;
86575;SDS011;77216;53.732;9.462;2024-03-23T09:39:25;641.13;;;594.28;;
86575;SDS011;77216;53.732;9.462;2024-03-23T09:41:51;639.30;;;591.20;;
86575;SDS011;77216;53.732;9.462;2024-03-23T09:44:24;648.50;;;599.27;;
86575;SDS011;77216;53.732;9.462;2024-03-23T09:46:51;639.58;;;592.85;;
86575;SDS011;77216;53.732;9.462;2024-03-23T09:49:20;643.95;;;596.28;;
86575;SDS011;77216;53.732;9.462;2024-03-23T09:51:46;635.92;;;590.78;;
86575;SDS011;77216;53.732;9.462;2024-03-23T09:54:12;637.20;;;590.88;;
86575;SDS011;77216;53.732;9.462;2024-03-23T09:56:37;637.20;;;591.83;;
86575;SDS011;77216;53.732;9.462;2024-03-23T09:59:06;641.38;;;592.70;;
86575;SDS011;77216;53.732;9.462;2024-03-23T10:01:33;647.15;;;597.83;;
86575;SDS011;77216;53.732;9.462;2024-03-23T10:03:59;646.40;;;597.80;;
86575;SDS011;77216;53.732;9.462;2024-03-23T10:06:25;650.42;;;600.17;;
86575;SDS011;77216;53.732;9.462;2024-03-23T10:08:52;641.25;;;595.00;;
86575;SDS011;77216;53.732;9.462;2024-03-23T10:11:20;636.75;;;591.00;;
86575;SDS011;77216;53.732;9.462;2024-03-23T10:13:46;639.33;;;592.80;;
86575;SDS011;77216;53.732;9.462;2024-03-23T10:16:12;638.40;;;592.63;;
86575;SDS011;77216;53.732;9.462;2024-03-23T10:18:46;639.78;;;592.17;;
86575;SDS011;77216;53.732;9.462;2024-03-23T10:21:13;638.33;;;591.65;;
86575;SDS011;77216;53.732;9.462;2024-03-23T10:23:40;636.08;;;588.85;;
86575;SDS011;77216;53.732;9.462;2024-03-23T10:26:16;644.85;;;597.65;;
86575;SDS011;77216;53.732;9.462;2024-03-23T10:28:52;643.33;;;595.58;;
86575;SDS011;77216;53.732;9.462;2024-03-23T10:31:18;637.40;;;591.13;;
86575;SDS011;77216;53.732;9.462;2024-03-23T10:33:47;642.00;;;595.08;;
86575;SDS011;77216;53.732;9.462;2024-03-23T10:36:13;644.80;;;597.20;;
86575;SDS011;77216;53.732;9.462;2024-03-23T10:38:42;648.17;;;598.85;;
86575;SDS011;77216;53.732;9.462;2024-03-23T10:41:12;643.88;;;596.90;;
86575;SDS011;77216;53.732;9.462;2024-03-23T10:43:38;642.40;;;594.65;;
86575;SDS011;77216;53.732;9.462;2024-03-23T10:48:40;656.70;;;605.92;;
86575;SDS011;77216;53.732;9.462;2024-03-23T10:51:09;644.75;;;596.30;;
86575;SDS011;77216;53.732;9.462;2024-03-23T10:53:36;641.85;;;596.85;;
86575;SDS011;77216;53.732;9.462;2024-03-23T10:56:05;641.88;;;596.25;;
86575;SDS011;77216;53.732;9.462;2024-03-23T10:58:33;645.55;;;598.03;;
86575;SDS011;77216;53.732;9.462;2024-03-23T11:01:03;649.88;;;601.10;;
86575;SDS011;77216;53.732;9.462;2024-03-23T11:05:58;640.80;;;594.13;;
86575;SDS011;77216;53.732;9.462;2024-03-23T11:08:38;645.42;;;597.22;;
86575;SDS011;77216;53.732;9.462;2024-03-23T11:13:42;651.97;;;603.15;;
86575;SDS011;77216;53.732;9.462;2024-03-23T11:16:16;642.33;;;595.35;;
86575;SDS011;77216;53.732;9.462;2024-03-23T11:18:43;650.88;;;602.95;;
86575;SDS011;77216;53.732;9.462;2024-03-23T11:21:10;644.22;;;597.42;;
86575;SDS011;77216;53.732;9.462;2024-03-23T11:24:12;641.80;;;595.03;;
86575;SDS011;77216;53.732;9.462;2024-03-23T11:26:39;642.65;;;595.63;;
86575;SDS011;77216;53.732;9.462;2024-03-23T11:29:08;652.40;;;604.70;;
86575;SDS011;77216;53.732;9.462;2024-03-23T11:31:38;646.80;;;596.97;;
86575;SDS011;77216;53.732;9.462;2024-03-23T11:34:06;647.13;;;598.92;;
86575;SDS011;77216;53.732;9.462;2024-03-23T11:36:32;639.80;;;592.45;;
86575;SDS011;77216;53.732;9.462;2024-03-23T11:38:58;636.63;;;590.28;;
86575;SDS011;77216;53.732;9.462;2024-03-23T11:41:23;632.67;;;586.35;;
86575;SDS011;77216;53.732;9.462;2024-03-23T11:43:49;635.33;;;590.28;;
86575;SDS011;77216;53.732;9.462;2024-03-23T11:46:22;638.15;;;591.58;;
86575;SDS011;77216;53.732;9.462;2024-03-23T11:48:51;639.83;;;593.13;;
86575;SDS011;77216;53.732;9.462;2024-03-23T11:51:17;637.33;;;592.08;;
86575;SDS011;77216;53.732;9.462;2024-03-23T11:53:44;640.50;;;593.92;;
86575;SDS011;77216;53.732;9.462;2024-03-23T11:56:10;644.33;;;598.75;;
86575;SDS011;77216;53.732;9.462;2024-03-23T11:58:36;647.47;;;599.35;;
86575;SDS011;77216;53.732;9.462;2024-03-23T12:01:03;647.60;;;599.10;;
86575;SDS011;77216;53.732;9.462;2024-03-23T12:03:30;642.33;;;593.67;;
86575;SDS011;77216;53.732;9.462;2024-03-23T12:06:01;647.67;;;599.92;;
86575;SDS011;77216;53.732;9.462;2024-03-23T12:08:36;641.95;;;595.28;;
86575;SDS011;77216;53.732;9.462;2024-03-23T12:11:07;641.13;;;594.22;;
86575;SDS011;77216;53.732;9.462;2024-03-23T12:13:37;649.17;;;600.58;;
86575;SDS011;77216;53.732;9.462;2024-03-23T12:18:40;638.42;;;590.78;;
86575;SDS011;77216;53.732;9.462;2024-03-23T12:21:07;647.50;;;601.40;;
86575;SDS011;77216;53.732;9.462;2024-03-23T12:23:32;646.05;;;597.88;;
86575;SDS011;77216;53.732;9.462;2024-03-23T12:25:58;645.95;;;598.70;;
86575;SDS011;77216;53.732;9.462;2024-03-23T12:28:24;644.20;;;597.22;;
86575;SDS011;77216;53.732;9.462;2024-03-23T12:30:51;639.97;;;593.10;;
86575;SDS011;77216;53.732;9.462;2024-03-23T12:33:18;639.97;;;593.30;;
86575;SDS011;77216;53.732;9.462;2024-03-23T12:35:46;645.47;;;597.50;;
86575;SDS011;77216;53.732;9.462;2024-03-23T12:38:14;639.35;;;592.55;;
86575;SDS011;77216;53.732;9.462;2024-03-23T12:40:40;652.45;;;603.55;;
86575;SDS011;77216;53.732;9.462;2024-03-23T12:43:06;644.47;;;595.80;;
86575;SDS011;77216;53.732;9.462;2024-03-23T12:45:32;651.30;;;602.63;;
86575;SDS011;77216;53.732;9.462;2024-03-23T12:47:58;647.95;;;600.45;;
86575;SDS011;77216;53.732;9.462;2024-03-23T12:50:23;641.00;;;595.13;;
86575;SDS011;77216;53.732;9.462;2024-03-23T12:52:49;686.17;;;624.20;;
86575;SDS011;77216;53.732;9.462;2024-03-23T12:55:17;653.30;;;602.75;;
86575;SDS011;77216;53.732;9.462;2024-03-23T12:57:50;650.05;;;601.72;;
86575;SDS011;77216;53.732;9.462;2024-03-23T13:00:22;634.15;;;589.55;;
86575;SDS011;77216;53.732;9.462;2024-03-23T13:02:49;642.22;;;596.85;;
86575;SDS011;77216;53.732;9.462;2024-03-23T13:05:18;640.83;;;595.20;;
86575;SDS011;77216;53.732;9.462;2024-03-23T13:07:51;635.08;;;589.35;;
86575;SDS011;77216;53.732;9.462;2024-03-23T13:10:21;627.80;;;584.58;;
86575;SDS011;77216;53.732;9.462;2024-03-23T13:12:49;641.45;;;592.38;;
86575;SDS011;77216;53.732;9.462;2024-03-23T13:15:15;626.60;;;581.38;;
86575;SDS011;77216;53.732;9.462;2024-03-23T13:17:42;637.53;;;590.35;;
86575;SDS011;77216;53.732;9.462;2024-03-23T13:20:08;635.20;;;588.95;;
86575;SDS011;77216;53.732;9.462;2024-03-23T13:22:38;637.90;;;591.80;;
86575;SDS011;77216;53.732;9.462;2024-03-23T13:25:04;636.90;;;590.65;;
86575;SDS011;77216;53.732;9.462;2024-03-23T13:27:29;640.78;;;592.33;;
86575;SDS011;77216;53.732;9.462;2024-03-23T13:29:55;643.90;;;595.35;;
86575;SDS011;77216;53.732;9.462;2024-03-23T13:32:20;642.47;;;595.70;;
86575;SDS011;77216;53.732;9.462;2024-03-23T13:34:46;644.33;;;596.72;;
86575;SDS011;77216;53.732;9.462;2024-03-23T13:37:15;645.58;;;599.08;;
86575;SDS011;77216;53.732;9.462;2024-03-23T13:39:43;639.20;;;593.28;;
86575;SDS011;77216;53.732;9.462;2024-03-23T13:42:17;648.28;;;599.75;;
86575;SDS011;77216;53.732;9.462;2024-03-23T13:44:45;641.97;;;595.03;;
86575;SDS011;77216;53.732;9.462;2024-03-23T13:47:10;634.50;;;589.33;;
86575;SDS011;77216;53.732;9.462;2024-03-23T13:49:36;643.78;;;596.60;;
86575;SDS011;77216;53.732;9.462;2024-03-23T13:52:01;656.13;;;606.40;;
86575;SDS011;77216;53.732;9.462;2024-03-23T13:54:27;646.10;;;599.38;;
86575;SDS011;77216;53.732;9.462;2024-03-23T13:56:55;656.67;;;607.47;;
86575;SDS011;77216;53.732;9.462;2024-03-23T13:59:21;646.00;;;599.08;;
86575;SDS011;77216;53.732;9.462;2024-03-23T14:01:49;648.05;;;600.45;;
86575;SDS011;77216;53.732;9.462;2024-03-23T14:04:17;645.42;;;598.22;;
86575;SDS011;77216;53.732;9.462;2024-03-23T14:06:45;645.17;;;598.38;;
86575;SDS011;77216;53.732;9.462;2024-03-23T14:09:11;647.92;;;600.15;;
86575;SDS011;77216;53.732;9.462;2024-03-23T14:11:46;651.90;;;603.20;;
86575;SDS011;77216;53.732;9.462;2024-03-23T14:14:12;644.22;;;597.80;;
86575;SDS011;77216;53.732;9.462;2024-03-23T14:16:37;645.22;;;598.45;;
86575;SDS011;77216;53.732;9.462;2024-03-23T14:19:03;650.53;;;602.70;;
86575;SDS011;77216;53.732;9.462;2024-03-23T14:21:30;645.90;;;597.28;;
86575;SDS011;77216;53.732;9.462;2024-03-23T14:23:56;648.22;;;598.65;;
86575;SDS011;77216;53.732;9.462;2024-03-23T14:26:22;642.17;;;594.85;;
86575;SDS011;77216;53.732;9.462;2024-03-23T14:28:48;646.72;;;598.80;;
86575;SDS011;77216;53.732;9.462;2024-03-23T14:31:15;650.13;;;603.55;;
86575;SDS011;77216;53.732;9.462;2024-03-23T14:33:41;642.38;;;594.10;;
86575;SDS011;77216;53.732;9.462;2024-03-23T14:36:11;648.30;;;600.15;;
86575;SDS011;77216;53.732;9.462;2024-03-23T14:38:41;650.13;;;602.95;;
86575;SDS011;77216;53.732;9.462;2024-03-23T14:41:07;646.97;;;598.60;;
86575;SDS011;77216;53.732;9.462;2024-03-23T14:43:33;662.70;;;612.47;;
86575;SDS011;77216;53.732;9.462;2024-03-23T14:48:40;654.08;;;603.28;;
86575;SDS011;77216;53.732;9.462;2024-03-23T14:51:06;653.20;;;604.90;;
86575;SDS011;77216;53.732;9.462;2024-03-23T14:53:34;648.88;;;600.25;;
86575;SDS011;77216;53.732;9.462;2024-03-23T14:56:01;657.65;;;607.28;;
86575;SDS011;77216;53.732;9.462;2024-03-23T14:58:27;646.60;;;598.90;;
86575;SDS011;77216;53.732;9.462;2024-03-23T15:00:59;661.78;;;610.03;;
86575;SDS011;77216;53.732;9.462;2024-03-23T15:03:26;664.22;;;611.58;;